Time;durP1;ratioP1;P1;durP2;ratioP2;P2;SDS_P1;SDS_P2;PMS_P1;PMS_P2;Temp;Humidity;BMP_temperature;BMP_pressure;BME280_temperature;BME280_humidity;BME280_pressure;Samples;Min_cycle;Max_cycle;Signal;HPM_P1;HPM_P2
2024/03/24 00:02:13;;;;;;;16.02;4.30;;;;;;;8.30;46.83;93289.06;5085338;28;20024;-80
2024/03/24 00:04:38;;;;;;;12.07;4.78;;;;;;;8.29;47.39;93271.59;5103282;28;20024;-80
2024/03/24 00:07:04;;;;;;;12.23;5.03;;;;;;;8.31;47.99;93279.25;5085273;28;20020;-80
2024/03/24 00:09:29;;;;;;;14.80;4.20;;;;;;;8.25;47.47;93281.28;5103230;28;20028;-80
2024/03/24 00:11:55;;;;;;;8.57;4.45;;;;;;;8.22;47.30;93268.63;5103211;28;20039;-79
2024/03/24 00:14:20;;;;;;;7.75;4.60;;;;;;;8.20;47.36;93284.06;5103288;28;20019;-80
2024/03/24 00:16:45;;;;;;;12.77;4.75;;;;;;;8.17;48.24;93285.50;5103226;28;20307;-79
2024/03/24 00:19:11;;;;;;;12.38;5.95;;;;;;;8.10;46.85;93279.88;5103121;28;20040;-80
2024/03/24 00:21:36;;;;;;;12.15;5.68;;;;;;;8.09;46.21;93267.69;5103188;28;20141;-79
2024/03/24 00:24:03;;;;;;;9.43;4.47;;;;;;;8.11;46.00;93278.78;5085125;28;20024;-79
2024/03/24 00:26:29;;;;;;;11.88;4.07;;;;;;;8.10;46.41;93277.22;5103236;28;20035;-79
2024/03/24 00:28:54;;;;;;;9.65;4.32;;;;;;;8.12;47.15;93274.22;5102977;28;20081;-80
2024/03/24 00:31:20;;;;;;;10.05;4.20;;;;;;;8.08;47.73;93268.78;5103108;28;20057;-79
2024/03/24 00:33:46;;;;;;;12.40;4.72;;;;;;;8.06;47.55;93268.31;5103179;28;20016;-79
2024/03/24 00:36:11;;;;;;;14.75;6.88;;;;;;;8.05;48.18;93264.09;5102878;28;20065;-79
2024/03/24 00:38:36;;;;;;;12.68;4.93;;;;;;;7.98;48.39;93267.22;5103040;28;20099;-80
2024/03/24 00:41:02;;;;;;;16.30;7.07;;;;;;;8.02;48.20;93256.75;5103038;28;20081;-79
2024/03/24 00:43:28;;;;;;;12.25;5.40;;;;;;;7.98;48.76;93264.56;5103073;28;20046;-79
2024/03/24 00:45:53;;;;;;;14.20;6.03;;;;;;;7.97;48.82;93248.94;5105775;28;20019;-80
2024/03/24 00:48:19;;;;;;;10.45;5.20;;;;;;;7.96;48.50;93242.09;5106922;28;20040;-79
2024/03/24 00:50:45;;;;;;;11.95;5.43;;;;;;;7.96;48.39;93240.22;5107261;28;20023;-79
2024/03/24 00:53:10;;;;;;;14.48;5.07;;;;;;;7.95;48.88;93240.50;5106956;28;20020;-80
2024/03/24 00:55:36;;;;;;;15.52;5.22;;;;;;;7.92;49.47;93244.56;5107069;28;20087;-79
2024/03/24 00:58:01;;;;;;;11.65;5.10;;;;;;;7.88;49.77;93242.84;5106750;28;20445;-80
2024/03/24 01:00:27;;;;;;;8.13;4.13;;;;;;;7.81;49.95;93238.00;5088755;28;20030;-80
2024/03/24 01:02:53;;;;;;;11.82;5.70;;;;;;;7.77;49.68;93235.16;5106685;28;20285;-80
2024/03/24 01:05:19;;;;;;;11.85;5.70;;;;;;;7.77;49.71;93232.53;5088503;28;20031;-80
2024/03/24 01:07:48;;;;;;;9.70;4.18;;;;;;;7.76;49.77;93223.00;5088771;28;20035;-80
2024/03/24 01:10:14;;;;;;;16.48;5.20;;;;;;;7.75;49.41;93226.75;5107067;28;20287;-80
2024/03/24 01:12:39;;;;;;;8.88;5.10;;;;;;;7.75;49.52;93218.00;5106982;28;20053;-80
2024/03/24 01:15:05;;;;;;;9.63;4.85;;;;;;;7.72;49.54;93208.81;5088810;28;20044;-80
2024/03/24 01:17:30;;;;;;;11.98;4.75;;;;;;;7.69;49.31;93200.69;5106680;28;20016;-79
2024/03/24 01:19:56;;;;;;;11.82;4.68;;;;;;;7.72;49.10;93197.44;5106590;28;20035;-79
2024/03/24 01:22:21;;;;;;;11.30;5.70;;;;;;;7.74;48.63;93198.66;5106700;28;20215;-79
2024/03/24 01:24:47;;;;;;;13.32;5.82;;;;;;;7.79;48.52;93206.47;5088821;28;20329;-79
2024/03/24 01:27:12;;;;;;;35.33;6.72;;;;;;;7.83;48.43;93202.09;5106565;28;20222;-79
2024/03/24 01:29:37;;;;;;;14.00;5.32;;;;;;;7.84;47.77;93208.19;5088417;28;20023;-79
2024/03/24 01:32:03;;;;;;;15.95;5.40;;;;;;;7.81;47.09;93192.88;5106742;28;20015;-80
2024/03/24 01:34:28;;;;;;;12.10;4.80;;;;;;;7.87;46.65;93189.00;5106696;28;20114;-80
2024/03/24 01:36:54;;;;;;;13.00;5.15;;;;;;;7.90;47.09;93190.25;5106463;28;20031;-80
2024/03/24 01:39:19;;;;;;;13.07;5.53;;;;;;;7.92;48.27;93188.84;5106561;28;20055;-79
2024/03/24 01:41:44;;;;;;;13.90;5.03;;;;;;;7.89;47.19;93200.06;5106539;28;20020;-80
2024/03/24 01:44:10;;;;;;;10.18;4.97;;;;;;;7.86;47.42;93194.59;5106125;28;20187;-80
2024/03/24 01:46:35;;;;;;;12.73;5.25;;;;;;;7.83;47.88;93194.13;5106364;28;20038;-79
2024/03/24 01:49:01;;;;;;;10.50;5.05;;;;;;;7.80;48.03;93192.13;5105740;28;20035;-79
2024/03/24 01:51:27;;;;;;;10.75;5.15;;;;;;;7.83;48.31;93186.16;5105802;28;20320;-80
2024/03/24 01:53:54;;;;;;;12.98;4.78;;;;;;;7.86;47.21;93179.47;5105783;28;20043;-80
2024/03/24 01:56:20;;;;;;;15.98;6.75;;;;;;;7.93;48.08;93186.97;5104628;28;20087;-79
2024/03/24 01:58:46;;;;;;;12.88;5.45;;;;;;;7.96;49.09;93183.72;5105892;28;20016;-79
2024/03/24 02:01:11;;;;;;;15.20;6.65;;;;;;;7.95;49.26;93182.91;5105507;28;20016;-79
2024/03/24 02:03:37;;;;;;;19.90;7.70;;;;;;;7.99;49.48;93183.06;5105499;28;20031;-79
2024/03/24 02:06:04;;;;;;;19.20;7.28;;;;;;;7.95;49.24;93182.13;5105415;28;20054;-80
2024/03/24 02:08:30;;;;;;;19.67;6.50;;;;;;;7.97;48.77;93188.69;5105262;28;20036;-80
2024/03/24 02:10:56;;;;;;;11.93;5.47;;;;;;;8.00;48.34;93185.41;5105395;28;20032;-80
2024/03/24 02:13:22;;;;;;;14.35;5.28;;;;;;;7.99;48.37;93183.06;5105278;28;20217;-80
2024/03/24 02:15:52;;;;;;;12.43;5.90;;;;;;;8.02;48.45;93177.91;5105523;28;20042;-80
2024/03/24 02:18:17;;;;;;;18.73;6.65;;;;;;;8.07;49.15;93178.84;5105355;28;20023;-80
2024/03/24 02:20:43;;;;;;;19.60;5.25;;;;;;;8.07;48.93;93169.00;5105419;28;20012;-79
2024/03/24 02:23:08;;;;;;;14.75;6.05;;;;;;;8.10;49.10;93176.38;5105199;28;20020;-80
2024/03/24 02:25:33;;;;;;;13.40;5.30;;;;;;;8.12;49.26;93173.38;5105341;28;20020;-80
2024/03/24 02:27:59;;;;;;;12.80;4.68;;;;;;;8.13;48.45;93173.06;5105128;28;20048;-80
2024/03/24 02:30:24;;;;;;;10.85;5.70;;;;;;;8.14;47.92;93179.16;5104928;28;20086;-79
2024/03/24 02:32:50;;;;;;;10.13;4.45;;;;;;;8.15;47.41;93170.88;5087137;28;20322;-80
2024/03/24 02:35:15;;;;;;;9.43;3.97;;;;;;;8.16;47.51;93166.34;5105361;28;20023;-81
2024/03/24 02:37:40;;;;;;;11.50;4.70;;;;;;;8.23;46.99;93177.28;5105247;28;20031;-80
2024/03/24 02:40:09;;;;;;;9.63;3.78;;;;;;;8.30;45.96;93163.53;5104780;28;20023;-80
2024/03/24 02:42:35;;;;;;;9.70;4.93;;;;;;;8.30;46.47;93161.63;5104934;28;20054;-80
2024/03/24 02:45:01;;;;;;;10.05;4.50;;;;;;;8.32;46.42;93169.28;5104740;28;20267;-80
2024/03/24 02:47:27;;;;;;;16.75;5.65;;;;;;;8.42;47.50;93158.38;5104703;28;20036;-80
2024/03/24 02:49:53;;;;;;;11.10;4.95;;;;;;;8.36;47.86;93165.69;5104772;28;20020;-80
2024/03/24 02:52:18;;;;;;;13.43;5.55;;;;;;;8.43;47.35;93158.06;5104773;28;20261;-79
2024/03/24 02:54:44;;;;;;;9.40;4.07;;;;;;;8.46;47.67;93167.25;5104824;28;20027;-80
2024/03/24 02:57:09;;;;;;;10.93;5.07;;;;;;;8.47;47.24;93160.88;5104592;28;20311;-80
2024/03/24 02:59:34;;;;;;;8.60;3.95;;;;;;;8.51;46.75;93167.09;5104543;28;20024;-80
2024/03/24 03:02:00;;;;;;;14.35;5.30;;;;;;;8.55;46.37;93161.94;5086381;28;20020;-80
2024/03/24 03:04:28;;;;;;;12.63;4.65;;;;;;;8.60;47.32;93169.72;5104460;28;20023;-80
2024/03/24 03:06:53;;;;;;;9.98;4.63;;;;;;;8.62;47.28;93164.88;5086075;28;20030;-80
2024/03/24 03:09:19;;;;;;;10.07;4.82;;;;;;;8.60;47.32;93159.88;5104335;28;20274;-80
2024/03/24 03:11:44;;;;;;;15.68;5.38;;;;;;;8.60;47.26;93164.41;5104251;28;20023;-80
2024/03/24 03:14:10;;;;;;;9.18;4.30;;;;;;;8.58;47.41;93159.41;5104185;28;20020;-80
2024/03/24 03:16:35;;;;;;;17.15;4.57;;;;;;;8.51;46.49;93150.38;5104242;28;20020;-80
2024/03/24 03:19:01;;;;;;;8.93;4.70;;;;;;;8.50;47.23;93160.22;5104393;28;20095;-80
2024/03/24 03:21:27;;;;;;;11.25;4.30;;;;;;;8.51;46.62;93167.09;5104183;28;20026;-80
2024/03/24 03:23:53;;;;;;;10.52;4.63;;;;;;;8.51;45.79;93159.13;5104120;28;20027;-80
2024/03/24 03:26:20;;;;;;;11.70;4.50;;;;;;;8.55;46.41;93157.41;5104417;28;20024;-80
2024/03/24 03:28:46;;;;;;;11.30;5.40;;;;;;;8.54;47.55;93155.84;5103816;28;20323;-80
2024/03/24 03:31:12;;;;;;;9.90;4.68;;;;;;;8.52;47.61;93152.72;5103838;28;20306;-79
2024/03/24 03:33:37;;;;;;;14.35;6.03;;;;;;;8.54;47.25;93155.06;5103728;28;20020;-80
2024/03/24 03:36:03;;;;;;;9.10;4.75;;;;;;;8.51;47.19;93140.53;5103855;28;20371;-80
2024/03/24 03:38:29;;;;;;;12.88;4.75;;;;;;;8.51;47.38;93151.16;5103958;28;20049;-79
2024/03/24 03:40:55;;;;;;;9.07;4.10;;;;;;;8.49;47.60;93153.38;5103568;28;20020;-80
2024/03/24 03:43:21;;;;;;;12.30;4.57;;;;;;;8.42;47.98;93147.75;5103909;28;20039;-80
2024/03/24 03:45:47;;;;;;;10.88;4.80;;;;;;;8.36;47.77;93141.00;5103898;28;20020;-80
2024/03/24 03:48:12;;;;;;;10.30;4.10;;;;;;;8.33;47.16;93133.69;5103923;28;20030;-80
2024/03/24 03:50:40;;;;;;;7.85;3.78;;;;;;;8.36;46.97;93135.69;5103651;28;20199;-80
2024/03/24 03:53:06;;;;;;;8.80;4.07;;;;;;;8.38;47.09;93142.25;5103765;28;20034;-80
2024/03/24 03:55:33;;;;;;;13.75;4.40;;;;;;;8.42;47.32;93150.41;5103556;28;20020;-80
2024/03/24 03:58:02;;;;;;;11.90;4.53;;;;;;;8.44;47.75;93156.19;5103145;28;20231;-80
2024/03/24 04:00:27;;;;;;;10.07;4.68;;;;;;;8.42;47.99;93153.81;5085851;28;20329;-80
2024/03/24 04:02:53;;;;;;;14.32;4.60;;;;;;;8.39;48.12;93161.63;5103998;28;20019;-80
2024/03/24 04:05:19;;;;;;;13.05;4.50;;;;;;;8.33;48.32;93134.47;5103488;28;20020;-80
2024/03/24 04:07:44;;;;;;;9.52;4.25;;;;;;;8.30;49.58;93152.91;5103233;28;20034;-80
2024/03/24 04:10:10;;;;;;;9.82;4.30;;;;;;;8.15;49.24;93154.19;5103538;28;20024;-80
2024/03/24 04:12:36;;;;;;;9.52;4.28;;;;;;;8.11;49.57;93156.66;5103194;28;20310;-80
2024/03/24 04:15:02;;;;;;;10.88;4.03;;;;;;;8.08;49.97;93148.56;5103099;28;20154;-80
2024/03/24 04:17:28;;;;;;;12.02;4.20;;;;;;;8.05;49.81;93147.31;5102935;28;20020;-80
2024/03/24 04:19:54;;;;;;;8.68;3.97;;;;;;;8.02;49.91;93140.75;5102629;28;20028;-80
2024/03/24 04:22:20;;;;;;;10.88;4.65;;;;;;;8.02;50.30;93150.59;5103240;28;20299;-80
2024/03/24 04:24:46;;;;;;;7.15;4.10;;;;;;;8.01;49.96;93154.34;5103162;28;20301;-79
2024/03/24 04:27:12;;;;;;;11.05;4.60;;;;;;;7.93;49.55;93152.47;5084763;28;20020;-80
2024/03/24 04:29:37;;;;;;;13.98;4.80;;;;;;;7.89;50.33;93151.53;5084850;28;20023;-80
2024/03/24 04:32:03;;;;;;;11.23;5.25;;;;;;;7.87;50.88;93146.53;5102680;28;20024;-80
2024/03/24 04:34:28;;;;;;;14.50;5.30;;;;;;;7.80;50.92;93159.50;5102884;28;20040;-80
2024/03/24 04:36:54;;;;;;;13.85;4.88;;;;;;;7.78;50.42;93169.66;5084963;28;20019;-80
2024/03/24 04:39:19;;;;;;;15.85;4.95;;;;;;;7.64;50.74;93169.78;5102943;28;20022;-80
2024/03/24 04:41:49;;;;;;;10.77;4.25;;;;;;;7.53;50.76;93164.03;5102844;28;20066;-80
2024/03/24 04:44:14;;;;;;;10.18;4.25;;;;;;;7.49;50.71;93168.38;5102836;28;20012;-80
2024/03/24 04:46:40;;;;;;;8.23;4.32;;;;;;;7.46;50.83;93173.50;5102785;28;20207;-80
2024/03/24 04:49:05;;;;;;;12.45;4.68;;;;;;;7.39;50.64;93185.34;5102553;28;20054;-79
2024/03/24 04:51:31;;;;;;;14.93;5.22;;;;;;;7.34;51.08;93198.75;5102706;28;20025;-79
2024/03/24 04:53:57;;;;;;;13.68;4.82;;;;;;;7.27;51.66;93201.09;5102942;28;20023;-79
2024/03/24 04:56:23;;;;;;;11.20;4.55;;;;;;;7.19;51.79;93184.06;5084671;28;20069;-80
2024/03/24 04:58:49;;;;;;;10.10;4.60;;;;;;;7.16;51.94;93179.34;5102508;28;20016;-80
2024/03/24 05:01:14;;;;;;;21.15;5.05;;;;;;;7.16;52.36;93194.50;5102635;28;20023;-79
2024/03/24 05:03:40;;;;;;;9.30;5.00;;;;;;;7.17;52.90;93190.75;5102500;28;20016;-80
2024/03/24 05:06:05;;;;;;;15.05;5.95;;;;;;;7.17;52.90;93190.75;5102657;28;20091;-80
2024/03/24 05:08:33;;;;;;;11.68;4.93;;;;;;;7.18;53.29;93194.97;5102308;28;20016;-80
2024/03/24 05:11:05;;;;;;;19.45;7.63;;;;;;;7.24;53.88;93199.03;5102411;28;20020;-81
2024/03/24 05:13:32;;;;;;;10.15;5.50;;;;;;;7.26;53.86;93180.94;5102558;28;20095;-78
2024/03/24 05:15:58;;;;;;;11.13;4.68;;;;;;;7.34;54.11;93184.72;5102394;28;20020;-81
2024/03/24 05:18:23;;;;;;;16.23;4.68;;;;;;;7.39;54.26;93188.00;5102589;28;20023;-78
2024/03/24 05:20:48;;;;;;;17.95;5.85;;;;;;;7.44;54.61;93192.38;5102392;28;20012;-81
2024/03/24 05:23:18;;;;;;;14.55;5.90;;;;;;;7.50;54.60;93187.72;5102253;28;20035;-79
2024/03/24 05:25:53;;;;;;;12.32;5.35;;;;;;;7.57;54.16;93166.81;5102359;28;20029;-79
2024/03/24 05:28:19;;;;;;;14.38;5.45;;;;;;;7.64;54.36;93172.44;5102371;28;20055;-79
2024/03/24 05:30:45;;;;;;;11.65;5.80;;;;;;;7.74;54.04;93174.03;5102428;28;20024;-80
2024/03/24 05:33:11;;;;;;;16.38;5.32;;;;;;;7.81;53.39;93161.06;5105199;28;20039;-80
2024/03/24 05:35:36;;;;;;;15.02;6.03;;;;;;;7.88;53.36;93168.56;5105814;28;20226;-80
2024/03/24 05:38:02;;;;;;;13.43;5.45;;;;;;;7.97;53.00;93166.69;5105858;28;20028;-79
2024/03/24 05:40:27;;;;;;;15.18;5.60;;;;;;;8.03;52.49;93174.16;5105936;28;20051;-80
2024/03/24 05:42:53;;;;;;;12.25;5.30;;;;;;;8.12;51.81;93184.78;5087847;28;20020;-79
2024/03/24 05:45:19;;;;;;;15.07;4.93;;;;;;;8.22;51.20;93181.81;5105765;28;20028;-79
2024/03/24 05:47:44;;;;;;;15.00;4.85;;;;;;;8.31;50.81;93183.69;5105663;28;20052;-80
2024/03/24 05:50:10;;;;;;;10.90;4.60;;;;;;;8.41;50.68;93178.84;5105660;28;20066;-79
2024/03/24 05:52:38;;;;;;;14.15;4.88;;;;;;;8.49;50.39;93182.56;5105563;28;20315;-79
2024/03/24 05:55:07;;;;;;;16.08;4.68;;;;;;;8.59;50.31;93173.50;5105605;28;20057;-80
2024/03/24 05:57:33;;;;;;;10.40;5.13;;;;;;;8.64;50.30;93179.41;5105557;28;20074;-80
2024/03/24 05:59:59;;;;;;;19.52;5.57;;;;;;;8.73;50.01;93178.59;5105613;28;20047;-79
2024/03/24 06:02:27;;;;;;;12.95;5.13;;;;;;;8.83;50.12;93179.03;5105570;28;20028;-79
2024/03/24 06:04:55;;;;;;;11.18;5.13;;;;;;;8.88;50.14;93164.81;5105510;28;20028;-79
2024/03/24 06:07:22;;;;;;;16.33;5.50;;;;;;;8.94;51.68;93170.72;5104960;28;20103;-80
2024/03/24 06:09:48;;;;;;;11.70;5.80;;;;;;;8.99;51.85;93165.22;5105341;28;20063;-80
2024/03/24 06:12:14;;;;;;;16.25;5.45;;;;;;;9.09;52.62;93172.84;5105351;28;20028;-80
2024/03/24 06:14:39;;;;;;;12.55;6.10;;;;;;;9.11;52.84;93183.16;5105313;28;20218;-79
2024/03/24 06:17:06;;;;;;;17.42;5.30;;;;;;;9.16;52.65;93175.78;5105186;28;20032;-80
2024/03/24 06:19:32;;;;;;;12.20;5.50;;;;;;;9.26;52.14;93179.16;5104797;28;20041;-79
2024/03/24 06:21:58;;;;;;;13.80;5.43;;;;;;;9.28;51.65;93175.09;5105184;28;20098;-79
2024/03/24 06:24:23;;;;;;;17.52;5.55;;;;;;;9.37;51.58;93173.16;5105150;28;20024;-80
2024/03/24 06:26:48;;;;;;;13.25;5.38;;;;;;;9.46;51.50;93175.75;5104941;28;20179;-79
2024/03/24 06:29:14;;;;;;;17.48;5.50;;;;;;;9.54;51.33;93166.19;5104921;28;20012;-80
2024/03/24 06:31:39;;;;;;;14.10;5.55;;;;;;;9.62;51.14;93170.66;5104847;28;20087;-80
2024/03/24 06:34:06;;;;;;;11.65;5.65;;;;;;;9.67;50.95;93164.38;5104768;28;20016;-79
2024/03/24 06:36:33;;;;;;;10.65;5.57;;;;;;;9.78;50.78;93171.66;5104665;28;20020;-80
2024/03/24 06:38:58;;;;;;;14.27;5.63;;;;;;;9.83;50.47;93171.47;5104770;28;20158;-80
2024/03/24 06:41:24;;;;;;;16.30;5.55;;;;;;;9.89;50.86;93169.41;5104690;28;20020;-80
2024/03/24 06:43:50;;;;;;;12.75;5.63;;;;;;;9.93;50.97;93169.50;5104124;28;20028;-80
2024/03/24 06:46:15;;;;;;;18.15;7.00;;;;;;;9.89;51.13;93165.94;5104614;28;20027;-80
2024/03/24 06:48:41;;;;;;;11.45;5.78;;;;;;;9.96;50.75;93168.88;5104375;28;20353;-79
2024/03/24 06:51:06;;;;;;;12.90;6.32;;;;;;;10.07;50.84;93164.69;5104348;28;20020;-79
2024/03/24 06:53:31;;;;;;;22.88;6.30;;;;;;;10.16;50.70;93170.72;5104428;28;20020;-79
2024/03/24 06:55:57;;;;;;;14.00;6.00;;;;;;;10.18;50.20;93165.84;5104450;28;20309;-80
2024/03/24 06:58:22;;;;;;;19.02;6.45;;;;;;;10.21;49.96;93167.09;5104194;28;20043;-80
2024/03/24 07:00:52;;;;;;;11.13;5.68;;;;;;;10.28;49.65;93169.22;5104341;28;20032;-80
2024/03/24 07:03:18;;;;;;;11.73;6.05;;;;;;;10.34;49.47;93167.94;5104172;28;20024;-79
2024/03/24 07:05:43;;;;;;;10.30;4.88;;;;;;;10.45;49.06;93169.09;5104214;28;20110;-80
2024/03/24 07:08:09;;;;;;;13.57;5.35;;;;;;;10.50;48.63;93171.56;5104236;28;20023;-80
2024/03/24 07:10:34;;;;;;;16.92;6.95;;;;;;;10.53;48.45;93165.56;5086170;28;20326;-80
2024/03/24 07:12:59;;;;;;;12.70;5.07;;;;;;;10.61;48.13;93162.03;5103858;28;20039;-80
2024/03/24 07:15:25;;;;;;;10.82;5.60;;;;;;;10.72;47.83;93157.03;5104278;28;20311;-80
2024/03/24 07:17:52;;;;;;;10.43;5.28;;;;;;;10.83;48.22;93152.09;5103977;28;20478;-80
2024/03/24 07:20:18;;;;;;;10.20;4.72;;;;;;;10.94;47.82;93158.53;5104035;28;20091;-80
2024/03/24 07:22:43;;;;;;;11.77;5.32;;;;;;;11.04;47.60;93151.97;5103645;28;20222;-80
2024/03/24 07:25:10;;;;;;;13.18;5.00;;;;;;;11.13;47.37;93154.53;5103738;28;20027;-80
2024/03/24 07:27:35;;;;;;;11.55;5.45;;;;;;;11.19;47.20;93154.00;5103721;28;20337;-80
2024/03/24 07:30:01;;;;;;;11.68;6.28;;;;;;;11.29;47.60;93147.41;5103680;28;20019;-80
2024/03/24 07:32:27;;;;;;;11.05;5.07;;;;;;;11.37;47.46;93143.84;5085714;28;20034;-80
2024/03/24 07:34:52;;;;;;;11.85;5.72;;;;;;;11.47;47.49;93136.53;5103635;28;20315;-80
2024/03/24 07:37:19;;;;;;;14.52;5.95;;;;;;;11.50;47.35;93114.50;5103508;28;20250;-80
2024/03/24 07:39:44;;;;;;;13.77;7.07;;;;;;;11.58;47.13;93108.25;5085437;28;20119;-80
2024/03/24 07:42:10;;;;;;;13.20;5.50;;;;;;;11.64;47.08;93104.22;5103506;28;20019;-80
2024/03/24 07:44:36;;;;;;;10.95;4.82;;;;;;;11.72;46.97;93105.22;5085402;28;20093;-80
2024/03/24 07:47:04;;;;;;;13.52;4.90;;;;;;;11.81;46.89;93103.19;5103181;28;20256;-80
2024/03/24 07:49:33;;;;;;;15.13;5.93;;;;;;;11.91;45.91;93112.66;5085284;28;20148;-80
2024/03/24 07:51:58;;;;;;;19.02;6.00;;;;;;;12.01;45.38;93106.84;5103508;28;20019;-80
2024/03/24 07:54:23;;;;;;;18.33;5.75;;;;;;;12.12;45.74;93109.78;5102543;28;20027;-80
2024/03/24 07:56:49;;;;;;;12.48;5.93;;;;;;;12.21;45.40;93116.53;5103284;28;20051;-81
2024/03/24 07:59:17;;;;;;;11.75;4.78;;;;;;;12.26;44.60;93112.06;5103315;28;20038;-80
2024/03/24 08:01:42;;;;;;;17.45;5.57;;;;;;;12.35;44.53;93112.69;5103151;28;20020;-80
2024/03/24 08:04:07;;;;;;;15.20;6.47;;;;;;;12.40;44.49;93107.88;5103135;28;20020;-80
2024/03/24 08:06:33;;;;;;;14.23;5.28;;;;;;;12.50;45.00;93117.28;5103248;28;20075;-80
2024/03/24 08:08:58;;;;;;;13.40;5.82;;;;;;;12.53;44.80;93103.22;5103440;28;20035;-81
2024/03/24 08:11:23;;;;;;;14.52;5.10;;;;;;;12.60;44.64;93095.41;5103196;28;20023;-80
2024/03/24 08:13:49;;;;;;;11.40;5.40;;;;;;;12.67;44.76;93099.38;5085076;28;20054;-81
2024/03/24 08:16:14;;;;;;;12.60;5.53;;;;;;;12.79;44.47;93100.06;5103068;28;20091;-80
2024/03/24 08:18:40;;;;;;;16.80;6.07;;;;;;;12.90;44.10;93100.31;5084971;28;20020;-80
2024/03/24 08:21:05;;;;;;;12.95;5.95;;;;;;;12.90;43.57;93102.97;5103016;28;20031;-80
2024/03/24 08:23:31;;;;;;;13.15;6.82;;;;;;;12.70;43.20;93090.66;5103212;28;20024;-80
2024/03/24 08:25:56;;;;;;;11.95;5.45;;;;;;;12.78;43.01;93085.16;5103158;28;20027;-80
2024/03/24 08:28:22;;;;;;;12.70;6.03;;;;;;;12.88;43.12;93094.53;5102991;28;20218;-80
2024/03/24 08:30:47;;;;;;;16.58;6.18;;;;;;;13.00;43.77;93089.09;5102884;28;20024;-80
2024/03/24 08:33:13;;;;;;;12.63;6.93;;;;;;;13.10;43.60;93081.66;5102828;28;20095;-80
2024/03/24 08:35:38;;;;;;;12.82;5.50;;;;;;;13.21;43.39;93080.03;5101726;28;20023;-80
2024/03/24 08:38:03;;;;;;;13.18;5.65;;;;;;;13.34;43.17;93067.34;5103023;28;20195;-79
2024/03/24 08:40:29;;;;;;;11.07;5.03;;;;;;;13.44;42.58;93056.84;5102987;28;20044;-80
2024/03/24 08:42:54;;;;;;;11.88;4.85;;;;;;;13.59;42.18;93060.59;5102793;28;20020;-80
2024/03/24 08:45:19;;;;;;;15.80;4.72;;;;;;;13.68;41.66;93049.69;5102797;28;20016;-80
2024/03/24 08:47:45;;;;;;;12.98;4.90;;;;;;;13.72;41.19;93050.53;5102532;28;20234;-80
2024/03/24 08:50:10;;;;;;;12.90;4.80;;;;;;;13.77;40.76;93041.44;5102686;28;20035;-80
2024/03/24 08:52:36;;;;;;;12.23;4.95;;;;;;;13.89;41.04;93043.97;5102899;28;20095;-80
2024/03/24 08:55:01;;;;;;;19.35;5.18;;;;;;;14.01;41.29;93045.75;5103004;28;20214;-80
2024/03/24 08:57:27;;;;;;;16.65;5.18;;;;;;;14.10;40.80;93034.81;5102577;28;20039;-80
2024/03/24 08:59:57;;;;;;;15.40;5.07;;;;;;;14.18;40.42;93036.47;5102673;28;20027;-80
2024/03/24 09:02:23;;;;;;;16.52;5.95;;;;;;;14.34;39.52;93031.78;5084532;28;20032;-80
2024/03/24 09:04:53;;;;;;;19.10;5.20;;;;;;;14.42;39.60;93022.75;5102598;28;20024;-80
2024/03/24 09:07:21;;;;;;;8.38;5.05;;;;;;;14.49;38.97;93026.66;5087591;28;20125;-80
2024/03/24 09:09:47;;;;;;;13.43;3.88;;;;;;;14.58;38.27;93014.59;5106402;28;20062;-80
2024/03/24 09:12:13;;;;;;;11.02;4.63;;;;;;;14.62;38.34;93015.44;5106424;28;20019;-80
2024/03/24 09:14:38;;;;;;;6.05;2.78;;;;;;;14.68;35.50;93018.59;5106196;28;20027;-80
2024/03/24 09:17:04;;;;;;;7.88;2.17;;;;;;;14.63;35.64;93021.56;5106475;28;20024;-80
2024/03/24 09:19:29;;;;;;;6.80;3.35;;;;;;;14.67;35.75;93024.31;5088370;28;20024;-80
2024/03/24 09:21:55;;;;;;;4.78;2.60;;;;;;;14.72;36.14;93010.63;5106194;28;20117;-81
2024/03/24 09:24:20;;;;;;;6.25;2.92;;;;;;;14.75;35.65;93004.53;5106228;28;20016;-80
2024/03/24 09:26:46;;;;;;;6.40;3.00;;;;;;;14.72;35.99;93005.25;5106175;28;20374;-80
2024/03/24 09:29:11;;;;;;;4.82;2.40;;;;;;;14.75;36.04;93004.53;5106162;28;20019;-80
2024/03/24 09:31:37;;;;;;;15.85;2.40;;;;;;;14.83;36.06;92987.41;5105945;28;20016;-80
2024/03/24 09:34:02;;;;;;;5.28;2.20;;;;;;;14.90;35.76;92997.47;5106191;28;20086;-80
2024/03/24 09:36:28;;;;;;;4.15;2.25;;;;;;;14.91;35.54;92994.41;5106001;28;20028;-81
2024/03/24 09:38:53;;;;;;;6.10;2.53;;;;;;;14.96;35.35;92991.44;5105736;28;20409;-80
2024/03/24 09:41:23;;;;;;;5.38;2.45;;;;;;;14.99;36.09;92979.97;5105896;28;20023;-80
2024/03/24 09:43:48;;;;;;;5.75;2.55;;;;;;;15.04;35.50;92992.28;5105804;28;20023;-80
2024/03/24 09:46:14;;;;;;;6.10;2.90;;;;;;;15.08;35.44;92974.34;5105910;28;20023;-81
2024/03/24 09:48:41;;;;;;;6.72;3.65;;;;;;;15.15;35.27;92981.72;5105643;28;20028;-80
2024/03/24 09:51:08;;;;;;;6.95;2.65;;;;;;;15.21;34.96;92967.63;5105492;28;20016;-80
2024/03/24 09:53:34;;;;;;;6.43;2.47;;;;;;;15.15;33.90;92955.66;5105838;28;20318;-79
2024/03/24 09:56:03;;;;;;;3.72;2.35;;;;;;;15.18;34.01;92946.91;5105601;28;20307;-79
2024/03/24 09:58:28;;;;;;;9.77;2.58;;;;;;;15.19;33.88;92955.72;5105370;28;20048;-80
2024/03/24 10:00:54;;;;;;;4.18;2.05;;;;;;;15.19;33.92;92955.72;5105303;28;20091;-80
2024/03/24 10:03:20;;;;;;;4.45;2.72;;;;;;;15.21;33.93;92945.38;5105450;28;20264;-80
2024/03/24 10:05:47;;;;;;;4.53;2.50;;;;;;;15.28;34.07;92939.31;5105435;28;20031;-79
2024/03/24 10:08:12;;;;;;;5.65;2.35;;;;;;;15.34;33.58;92943.25;5105312;28;20073;-79
2024/03/24 10:10:38;;;;;;;4.53;2.38;;;;;;;15.41;33.99;92933.38;5105182;28;20307;-80
2024/03/24 10:13:04;;;;;;;4.85;2.30;;;;;;;15.53;33.06;92945.78;5105260;28;20058;-80
2024/03/24 10:15:29;;;;;;;4.57;2.60;;;;;;;15.60;32.84;92937.03;5104978;28;20047;-80
2024/03/24 10:18:14;;;;;;;4.85;2.60;;;;;;;15.74;33.45;92947.97;5104323;28;20522;-80
2024/03/24 10:20:39;;;;;;;9.15;2.45;;;;;;;15.94;32.46;92945.09;5105124;28;20020;-80
2024/03/24 10:23:05;;;;;;;4.45;2.22;;;;;;;16.02;32.00;92941.34;5087159;28;20032;-80
2024/03/24 10:25:32;;;;;;;4.57;2.30;;;;;;;16.04;32.52;92939.81;5104935;28;20024;-80
2024/03/24 10:27:59;;;;;;;5.72;2.72;;;;;;;16.16;31.63;92940.69;5104895;28;20030;-80
2024/03/24 10:30:25;;;;;;;5.57;2.45;;;;;;;16.17;31.40;92916.13;5086962;28;20024;-80
2024/03/24 10:32:51;;;;;;;5.05;2.50;;;;;;;16.17;31.00;92921.50;5104974;28;20135;-80
2024/03/24 10:35:18;;;;;;;6.57;2.55;;;;;;;16.14;31.77;92935.69;5104921;28;20020;-80
2024/03/24 10:37:44;;;;;;;8.75;3.05;;;;;;;15.82;31.83;92938.06;5104754;28;20081;-80
2024/03/24 10:40:13;;;;;;;4.85;2.17;;;;;;;15.68;31.02;92914.47;5104491;28;20016;-80
2024/03/24 10:42:46;;;;;;;3.47;2.00;;;;;;;15.84;32.18;92915.06;5086446;28;20016;-79
2024/03/24 10:45:14;;;;;;;7.50;2.95;;;;;;;15.88;32.68;92912.41;5104659;28;20012;-80
2024/03/24 10:47:40;;;;;;;6.60;2.83;;;;;;;15.91;33.35;92918.94;5104433;28;20016;-79
2024/03/24 10:50:12;;;;;;;10.27;2.58;;;;;;;15.96;33.51;92907.88;5086545;28;20026;-80
2024/03/24 10:52:42;;;;;;;7.18;2.90;;;;;;;15.94;33.22;92894.81;5086286;28;20135;-80
2024/03/24 10:55:09;;;;;;;5.85;2.17;;;;;;;16.07;32.61;92902.59;5104464;28;20028;-80
2024/03/24 10:57:38;;;;;;;4.18;2.17;;;;;;;16.05;31.50;92900.28;5104354;28;20063;-80
2024/03/24 11:00:04;;;;;;;5.07;2.60;;;;;;;16.04;31.04;92909.50;5104578;28;20086;-80
2024/03/24 11:02:29;;;;;;;3.92;2.38;;;;;;;16.07;30.60;92889.94;5104383;28;20032;-81
2024/03/24 11:04:55;;;;;;;6.60;2.30;;;;;;;16.28;31.54;92896.63;5104424;28;20322;-80
2024/03/24 11:07:22;;;;;;;5.60;2.33;;;;;;;16.53;31.93;92900.28;5104188;28;20636;-80
2024/03/24 11:09:47;;;;;;;5.72;2.63;;;;;;;16.73;30.19;92900.00;5104404;28;20020;-80
2024/03/24 11:12:13;;;;;;;6.15;2.55;;;;;;;16.83;29.39;92873.22;5104294;28;20098;-81
2024/03/24 11:14:39;;;;;;;6.68;2.70;;;;;;;17.00;30.35;92889.84;5104247;28;20218;-81
2024/03/24 11:17:06;;;;;;;9.90;2.80;;;;;;;16.99;30.88;92872.91;5104228;28;20023;-80
2024/03/24 11:19:32;;;;;;;5.40;2.53;;;;;;;17.00;30.38;92876.38;5104195;28;20077;-80
2024/03/24 11:21:58;;;;;;;5.28;2.80;;;;;;;17.15;30.05;92864.50;5104075;28;20024;-80
2024/03/24 11:24:28;;;;;;;7.28;2.92;;;;;;;17.22;30.62;92861.88;5103796;28;20032;-80
2024/03/24 11:26:57;;;;;;;5.13;3.05;;;;;;;17.30;29.57;92851.09;5103856;28;20031;-80